sensor_id;sensor_type;location;lat;lon;timestamp;P1;durP1;ratioP1;P2;durP2;ratioP2
20458;SDS011;10388;52.314;7.938;2023-12-07T00:00:21;23.50;;;14.27;;
20458;SDS011;10388;52.314;7.938;2023-12-07T00:02:51;24.80;;;15.10;;
20458;SDS011;10388;52.314;7.938;2023-12-07T00:05:22;20.27;;;14.20;;
20458;SDS011;10388;52.314;7.938;2023-12-07T00:07:52;23.00;;;13.80;;
20458;SDS011;10388;52.314;7.938;2023-12-07T00:10:23;23.10;;;14.70;;
20458;SDS011;10388;52.314;7.938;2023-12-07T00:12:53;26.50;;;14.67;;
20458;SDS011;10388;52.314;7.938;2023-12-07T00:15:24;26.10;;;14.37;;
20458;SDS011;10388;52.314;7.938;2023-12-07T00:17:55;22.10;;;14.80;;
20458;SDS011;10388;52.314;7.938;2023-12-07T00:20:25;26.03;;;14.83;;
20458;SDS011;10388;52.314;7.938;2023-12-07T00:22:56;23.33;;;14.57;;
20458;SDS011;10388;52.314;7.938;2023-12-07T00:25:26;22.60;;;14.50;;
20458;SDS011;10388;52.314;7.938;2023-12-07T00:27:57;26.93;;;14.73;;
20458;SDS011;10388;52.314;7.938;2023-12-07T00:30:27;23.07;;;14.00;;
20458;SDS011;10388;52.314;7.938;2023-12-07T00:32:58;23.53;;;14.00;;
20458;SDS011;10388;52.314;7.938;2023-12-07T00:35:29;20.37;;;13.47;;
20458;SDS011;10388;52.314;7.938;2023-12-07T00:37:59;20.57;;;14.00;;
20458;SDS011;10388;52.314;7.938;2023-12-07T00:40:30;20.70;;;13.83;;
20458;SDS011;10388;52.314;7.938;2023-12-07T00:43:06;20.60;;;13.83;;
20458;SDS011;10388;52.314;7.938;2023-12-07T00:45:37;20.47;;;14.27;;
20458;SDS011;10388;52.314;7.938;2023-12-07T00:48:07;22.20;;;14.33;;
20458;SDS011;10388;52.314;7.938;2023-12-07T00:50:38;21.93;;;13.67;;
20458;SDS011;10388;52.314;7.938;2023-12-07T00:53:08;20.93;;;12.33;;
20458;SDS011;10388;52.314;7.938;2023-12-07T00:55:39;19.27;;;13.50;;
20458;SDS011;10388;52.314;7.938;2023-12-07T00:58:10;20.47;;;13.23;;
20458;SDS011;10388;52.314;7.938;2023-12-07T01:00:40;18.83;;;13.37;;
20458;SDS011;10388;52.314;7.938;2023-12-07T01:03:11;21.33;;;13.47;;
20458;SDS011;10388;52.314;7.938;2023-12-07T01:05:42;19.70;;;13.83;;
20458;SDS011;10388;52.314;7.938;2023-12-07T01:08:12;21.53;;;12.90;;
20458;SDS011;10388;52.314;7.938;2023-12-07T01:10:43;17.37;;;13.23;;
20458;SDS011;10388;52.314;7.938;2023-12-07T01:13:13;19.03;;;12.87;;
20458;SDS011;10388;52.314;7.938;2023-12-07T01:15:44;18.93;;;13.43;;
20458;SDS011;10388;52.314;7.938;2023-12-07T01:18:15;21.23;;;13.67;;
20458;SDS011;10388;52.314;7.938;2023-12-07T01:20:45;17.80;;;13.10;;
20458;SDS011;10388;52.314;7.938;2023-12-07T01:23:16;19.63;;;12.77;;
20458;SDS011;10388;52.314;7.938;2023-12-07T01:25:47;18.37;;;12.77;;
20458;SDS011;10388;52.314;7.938;2023-12-07T01:28:17;19.20;;;13.37;;
20458;SDS011;10388;52.314;7.938;2023-12-07T01:30:48;21.50;;;13.70;;
20458;SDS011;10388;52.314;7.938;2023-12-07T01:33:18;20.80;;;12.50;;
20458;SDS011;10388;52.314;7.938;2023-12-07T01:35:49;17.37;;;12.17;;
20458;SDS011;10388;52.314;7.938;2023-12-07T01:38:20;18.13;;;13.03;;
20458;SDS011;10388;52.314;7.938;2023-12-07T01:40:50;16.30;;;11.37;;
20458;SDS011;10388;52.314;7.938;2023-12-07T01:43:22;19.37;;;12.33;;
20458;SDS011;10388;52.314;7.938;2023-12-07T01:45:53;18.73;;;11.90;;
20458;SDS011;10388;52.314;7.938;2023-12-07T01:48:26;16.57;;;12.27;;
20458;SDS011;10388;52.314;7.938;2023-12-07T01:50:58;19.10;;;12.43;;
20458;SDS011;10388;52.314;7.938;2023-12-07T01:53:29;19.77;;;12.73;;
20458;SDS011;10388;52.314;7.938;2023-12-07T01:56:00;19.77;;;12.70;;
20458;SDS011;10388;52.314;7.938;2023-12-07T01:58:30;17.47;;;12.57;;
20458;SDS011;10388;52.314;7.938;2023-12-07T02:01:02;17.17;;;12.00;;
20458;SDS011;10388;52.314;7.938;2023-12-07T02:03:33;17.27;;;11.70;;
20458;SDS011;10388;52.314;7.938;2023-12-07T02:06:04;16.63;;;11.77;;
20458;SDS011;10388;52.314;7.938;2023-12-07T02:08:35;16.90;;;12.27;;
20458;SDS011;10388;52.314;7.938;2023-12-07T02:11:11;19.50;;;12.77;;
20458;SDS011;10388;52.314;7.938;2023-12-07T02:13:41;15.73;;;11.43;;
20458;SDS011;10388;52.314;7.938;2023-12-07T02:16:20;19.33;;;12.37;;
20458;SDS011;10388;52.314;7.938;2023-12-07T02:22:06;15.70;;;11.10;;
20458;SDS011;10388;52.314;7.938;2023-12-07T02:24:44;16.13;;;11.80;;
20458;SDS011;10388;52.314;7.938;2023-12-07T02:27:33;17.63;;;11.53;;
20458;SDS011;10388;52.314;7.938;2023-12-07T02:30:08;17.53;;;11.50;;
20458;SDS011;10388;52.314;7.938;2023-12-07T02:32:41;15.77;;;10.83;;
20458;SDS011;10388;52.314;7.938;2023-12-07T02:35:13;14.20;;;10.90;;
20458;SDS011;10388;52.314;7.938;2023-12-07T02:37:46;14.73;;;10.67;;
20458;SDS011;10388;52.314;7.938;2023-12-07T02:40:23;16.60;;;10.73;;
20458;SDS011;10388;52.314;7.938;2023-12-07T02:42:56;12.03;;;10.03;;
20458;SDS011;10388;52.314;7.938;2023-12-07T02:45:29;13.33;;;10.63;;
20458;SDS011;10388;52.314;7.938;2023-12-07T02:48:00;12.27;;;10.07;;
20458;SDS011;10388;52.314;7.938;2023-12-07T02:50:31;15.90;;;11.17;;
20458;SDS011;10388;52.314;7.938;2023-12-07T02:53:01;14.73;;;10.70;;
20458;SDS011;10388;52.314;7.938;2023-12-07T02:55:32;14.47;;;11.63;;
20458;SDS011;10388;52.314;7.938;2023-12-07T02:58:03;17.13;;;12.30;;
20458;SDS011;10388;52.314;7.938;2023-12-07T03:00:34;18.10;;;12.50;;
20458;SDS011;10388;52.314;7.938;2023-12-07T03:03:04;18.70;;;12.17;;
20458;SDS011;10388;52.314;7.938;2023-12-07T03:05:35;16.37;;;11.73;;
20458;SDS011;10388;52.314;7.938;2023-12-07T03:08:05;16.47;;;11.83;;
20458;SDS011;10388;52.314;7.938;2023-12-07T03:10:36;16.97;;;11.77;;
20458;SDS011;10388;52.314;7.938;2023-12-07T03:13:06;18.37;;;12.70;;
20458;SDS011;10388;52.314;7.938;2023-12-07T03:15:37;15.50;;;11.53;;
20458;SDS011;10388;52.314;7.938;2023-12-07T03:18:07;22.90;;;12.03;;
20458;SDS011;10388;52.314;7.938;2023-12-07T03:21:03;17.13;;;12.03;;
20458;SDS011;10388;52.314;7.938;2023-12-07T03:23:33;18.37;;;11.97;;
20458;SDS011;10388;52.314;7.938;2023-12-07T03:26:04;15.40;;;11.07;;
20458;SDS011;10388;52.314;7.938;2023-12-07T03:28:35;14.67;;;10.50;;
20458;SDS011;10388;52.314;7.938;2023-12-07T03:31:05;16.40;;;11.80;;
20458;SDS011;10388;52.314;7.938;2023-12-07T03:33:36;15.90;;;11.20;;
20458;SDS011;10388;52.314;7.938;2023-12-07T03:36:10;17.63;;;11.63;;
20458;SDS011;10388;52.314;7.938;2023-12-07T03:38:41;15.67;;;11.43;;
20458;SDS011;10388;52.314;7.938;2023-12-07T03:41:12;16.67;;;11.10;;
20458;SDS011;10388;52.314;7.938;2023-12-07T03:43:42;15.67;;;11.60;;
20458;SDS011;10388;52.314;7.938;2023-12-07T03:46:13;16.97;;;11.40;;
20458;SDS011;10388;52.314;7.938;2023-12-07T03:48:43;16.67;;;11.77;;
20458;SDS011;10388;52.314;7.938;2023-12-07T03:51:14;15.57;;;11.17;;
20458;SDS011;10388;52.314;7.938;2023-12-07T03:53:46;17.07;;;12.13;;
20458;SDS011;10388;52.314;7.938;2023-12-07T03:56:23;17.23;;;12.37;;
20458;SDS011;10388;52.314;7.938;2023-12-07T03:58:58;17.30;;;12.43;;
20458;SDS011;10388;52.314;7.938;2023-12-07T04:01:28;19.63;;;12.43;;
20458;SDS011;10388;52.314;7.938;2023-12-07T04:03:59;18.00;;;12.87;;
20458;SDS011;10388;52.314;7.938;2023-12-07T04:06:30;18.10;;;12.57;;
20458;SDS011;10388;52.314;7.938;2023-12-07T04:10:01;17.43;;;11.93;;
20458;SDS011;10388;52.314;7.938;2023-12-07T04:13:34;20.50;;;13.80;;
20458;SDS011;10388;52.314;7.938;2023-12-07T04:16:05;20.63;;;14.00;;
20458;SDS011;10388;52.314;7.938;2023-12-07T04:18:36;19.80;;;13.70;;
20458;SDS011;10388;52.314;7.938;2023-12-07T04:21:07;19.33;;;13.47;;
20458;SDS011;10388;52.314;7.938;2023-12-07T04:23:37;20.13;;;13.33;;
20458;SDS011;10388;52.314;7.938;2023-12-07T04:26:08;22.03;;;14.37;;
20458;SDS011;10388;52.314;7.938;2023-12-07T04:28:39;21.47;;;14.50;;
20458;SDS011;10388;52.314;7.938;2023-12-07T04:31:09;29.33;;;15.43;;
20458;SDS011;10388;52.314;7.938;2023-12-07T04:33:40;24.77;;;15.77;;
20458;SDS011;10388;52.314;7.938;2023-12-07T04:36:11;23.07;;;15.13;;
20458;SDS011;10388;52.314;7.938;2023-12-07T04:38:42;24.20;;;15.57;;
20458;SDS011;10388;52.314;7.938;2023-12-07T04:41:12;22.80;;;14.27;;
20458;SDS011;10388;52.314;7.938;2023-12-07T04:43:43;22.13;;;14.47;;
20458;SDS011;10388;52.314;7.938;2023-12-07T04:46:13;24.67;;;15.57;;
20458;SDS011;10388;52.314;7.938;2023-12-07T04:48:44;23.10;;;15.00;;
20458;SDS011;10388;52.314;7.938;2023-12-07T04:51:15;23.20;;;15.23;;
20458;SDS011;10388;52.314;7.938;2023-12-07T04:53:46;22.53;;;14.93;;
20458;SDS011;10388;52.314;7.938;2023-12-07T04:56:17;25.23;;;15.63;;
20458;SDS011;10388;52.314;7.938;2023-12-07T04:58:48;24.40;;;16.00;;
20458;SDS011;10388;52.314;7.938;2023-12-07T05:01:18;24.97;;;15.07;;
20458;SDS011;10388;52.314;7.938;2023-12-07T05:03:49;23.30;;;15.10;;
20458;SDS011;10388;52.314;7.938;2023-12-07T05:06:19;22.77;;;15.13;;
20458;SDS011;10388;52.314;7.938;2023-12-07T05:08:50;22.70;;;15.27;;
20458;SDS011;10388;52.314;7.938;2023-12-07T05:11:20;24.00;;;14.57;;
20458;SDS011;10388;52.314;7.938;2023-12-07T05:13:51;23.10;;;14.70;;
20458;SDS011;10388;52.314;7.938;2023-12-07T05:16:22;22.43;;;15.17;;
20458;SDS011;10388;52.314;7.938;2023-12-07T05:18:52;22.90;;;14.90;;
20458;SDS011;10388;52.314;7.938;2023-12-07T05:21:23;20.93;;;14.83;;
20458;SDS011;10388;52.314;7.938;2023-12-07T05:27:28;21.40;;;14.50;;
20458;SDS011;10388;52.314;7.938;2023-12-07T05:30:01;21.60;;;14.63;;
20458;SDS011;10388;52.314;7.938;2023-12-07T05:32:32;23.30;;;14.13;;
20458;SDS011;10388;52.314;7.938;2023-12-07T05:35:03;21.83;;;14.47;;
20458;SDS011;10388;52.314;7.938;2023-12-07T05:37:34;21.53;;;14.70;;
20458;SDS011;10388;52.314;7.938;2023-12-07T05:40:05;24.67;;;15.83;;
20458;SDS011;10388;52.314;7.938;2023-12-07T05:42:36;24.90;;;15.70;;
20458;SDS011;10388;52.314;7.938;2023-12-07T05:45:07;23.40;;;16.00;;
20458;SDS011;10388;52.314;7.938;2023-12-07T05:47:40;26.30;;;17.47;;
20458;SDS011;10388;52.314;7.938;2023-12-07T05:50:15;27.57;;;16.77;;
20458;SDS011;10388;52.314;7.938;2023-12-07T05:52:48;24.97;;;17.00;;
20458;SDS011;10388;52.314;7.938;2023-12-07T05:55:19;25.90;;;17.30;;
20458;SDS011;10388;52.314;7.938;2023-12-07T05:57:50;26.60;;;16.37;;
20458;SDS011;10388;52.314;7.938;2023-12-07T06:00:22;26.97;;;17.20;;
20458;SDS011;10388;52.314;7.938;2023-12-07T06:02:53;25.57;;;16.83;;
20458;SDS011;10388;52.314;7.938;2023-12-07T06:05:24;25.80;;;17.60;;
20458;SDS011;10388;52.314;7.938;2023-12-07T06:07:58;28.73;;;18.23;;
20458;SDS011;10388;52.314;7.938;2023-12-07T06:10:28;28.83;;;18.00;;
20458;SDS011;10388;52.314;7.938;2023-12-07T06:12:59;30.23;;;18.10;;
20458;SDS011;10388;52.314;7.938;2023-12-07T06:15:30;31.03;;;19.00;;
20458;SDS011;10388;52.314;7.938;2023-12-07T06:18:01;31.30;;;19.47;;
20458;SDS011;10388;52.314;7.938;2023-12-07T06:20:31;30.43;;;19.33;;
20458;SDS011;10388;52.314;7.938;2023-12-07T06:23:02;30.97;;;18.77;;
20458;SDS011;10388;52.314;7.938;2023-12-07T06:25:34;29.27;;;18.53;;
20458;SDS011;10388;52.314;7.938;2023-12-07T06:28:04;32.83;;;18.07;;
20458;SDS011;10388;52.314;7.938;2023-12-07T06:30:34;30.80;;;18.47;;
20458;SDS011;10388;52.314;7.938;2023-12-07T06:33:05;32.03;;;19.73;;
20458;SDS011;10388;52.314;7.938;2023-12-07T06:35:36;33.47;;;19.13;;
20458;SDS011;10388;52.314;7.938;2023-12-07T06:38:06;29.43;;;19.03;;
20458;SDS011;10388;52.314;7.938;2023-12-07T06:40:37;28.77;;;19.00;;
20458;SDS011;10388;52.314;7.938;2023-12-07T06:43:07;26.47;;;18.13;;
20458;SDS011;10388;52.314;7.938;2023-12-07T06:45:38;31.40;;;19.77;;
20458;SDS011;10388;52.314;7.938;2023-12-07T06:48:08;28.43;;;18.37;;
20458;SDS011;10388;52.314;7.938;2023-12-07T06:50:39;29.53;;;18.47;;
20458;SDS011;10388;52.314;7.938;2023-12-07T06:53:09;31.53;;;19.13;;
20458;SDS011;10388;52.314;7.938;2023-12-07T06:55:40;30.80;;;18.40;;
20458;SDS011;10388;52.314;7.938;2023-12-07T06:58:11;30.87;;;19.33;;
20458;SDS011;10388;52.314;7.938;2023-12-07T07:00:42;32.80;;;19.77;;
20458;SDS011;10388;52.314;7.938;2023-12-07T07:03:12;31.63;;;18.67;;
20458;SDS011;10388;52.314;7.938;2023-12-07T07:05:43;35.80;;;20.93;;
20458;SDS011;10388;52.314;7.938;2023-12-07T07:08:13;32.50;;;19.33;;
20458;SDS011;10388;52.314;7.938;2023-12-07T07:10:44;35.60;;;20.40;;
20458;SDS011;10388;52.314;7.938;2023-12-07T07:13:16;35.67;;;19.97;;
20458;SDS011;10388;52.314;7.938;2023-12-07T07:15:49;38.90;;;22.77;;
20458;SDS011;10388;52.314;7.938;2023-12-07T07:18:19;35.17;;;21.37;;
20458;SDS011;10388;52.314;7.938;2023-12-07T07:20:53;39.03;;;22.63;;
20458;SDS011;10388;52.314;7.938;2023-12-07T07:23:24;39.87;;;23.77;;
20458;SDS011;10388;52.314;7.938;2023-12-07T07:25:54;39.70;;;23.70;;
20458;SDS011;10388;52.314;7.938;2023-12-07T07:28:25;39.93;;;23.47;;
20458;SDS011;10388;52.314;7.938;2023-12-07T07:30:55;37.27;;;23.10;;
20458;SDS011;10388;52.314;7.938;2023-12-07T07:33:26;40.30;;;23.90;;
20458;SDS011;10388;52.314;7.938;2023-12-07T07:35:57;39.80;;;23.83;;
20458;SDS011;10388;52.314;7.938;2023-12-07T07:38:27;38.90;;;23.07;;
20458;SDS011;10388;52.314;7.938;2023-12-07T07:40:58;39.30;;;22.97;;
20458;SDS011;10388;52.314;7.938;2023-12-07T07:43:28;35.73;;;21.90;;
20458;SDS011;10388;52.314;7.938;2023-12-07T07:45:59;38.73;;;23.30;;
20458;SDS011;10388;52.314;7.938;2023-12-07T07:48:30;38.10;;;22.57;;
20458;SDS011;10388;52.314;7.938;2023-12-07T07:51:00;43.10;;;22.63;;
20458;SDS011;10388;52.314;7.938;2023-12-07T07:53:31;38.60;;;23.13;;
20458;SDS011;10388;52.314;7.938;2023-12-07T07:56:01;35.27;;;21.47;;
20458;SDS011;10388;52.314;7.938;2023-12-07T07:58:32;38.07;;;22.70;;
20458;SDS011;10388;52.314;7.938;2023-12-07T08:01:03;38.80;;;22.13;;
20458;SDS011;10388;52.314;7.938;2023-12-07T08:03:34;38.57;;;21.83;;
20458;SDS011;10388;52.314;7.938;2023-12-07T08:06:04;37.17;;;20.87;;
20458;SDS011;10388;52.314;7.938;2023-12-07T08:08:36;36.50;;;22.00;;
20458;SDS011;10388;52.314;7.938;2023-12-07T08:11:06;35.70;;;21.33;;
20458;SDS011;10388;52.314;7.938;2023-12-07T08:13:38;37.47;;;22.07;;
20458;SDS011;10388;52.314;7.938;2023-12-07T08:16:09;36.17;;;21.50;;
20458;SDS011;10388;52.314;7.938;2023-12-07T08:18:39;35.67;;;20.70;;
20458;SDS011;10388;52.314;7.938;2023-12-07T08:21:18;41.30;;;21.27;;
20458;SDS011;10388;52.314;7.938;2023-12-07T08:23:52;35.73;;;21.03;;
20458;SDS011;10388;52.314;7.938;2023-12-07T08:26:23;38.57;;;22.53;;
20458;SDS011;10388;52.314;7.938;2023-12-07T08:28:53;43.78;;;22.92;;
20458;SDS011;10388;52.314;7.938;2023-12-07T08:31:24;39.73;;;21.97;;
20458;SDS011;10388;52.314;7.938;2023-12-07T08:33:55;39.97;;;22.87;;
20458;SDS011;10388;52.314;7.938;2023-12-07T08:36:26;41.77;;;22.07;;
20458;SDS011;10388;52.314;7.938;2023-12-07T08:38:56;38.33;;;21.93;;
20458;SDS011;10388;52.314;7.938;2023-12-07T08:41:27;39.70;;;24.30;;
20458;SDS011;10388;52.314;7.938;2023-12-07T08:43:57;40.03;;;22.63;;
20458;SDS011;10388;52.314;7.938;2023-12-07T08:46:28;38.87;;;22.33;;
20458;SDS011;10388;52.314;7.938;2023-12-07T08:48:58;39.33;;;22.10;;
20458;SDS011;10388;52.314;7.938;2023-12-07T08:51:29;36.30;;;21.13;;
20458;SDS011;10388;52.314;7.938;2023-12-07T08:53:59;35.33;;;20.10;;
20458;SDS011;10388;52.314;7.938;2023-12-07T08:56:30;36.93;;;20.90;;
20458;SDS011;10388;52.314;7.938;2023-12-07T08:59:01;34.87;;;20.37;;
20458;SDS011;10388;52.314;7.938;2023-12-07T09:01:32;35.37;;;20.57;;
20458;SDS011;10388;52.314;7.938;2023-12-07T09:04:04;36.73;;;20.87;;
20458;SDS011;10388;52.314;7.938;2023-12-07T09:06:36;36.03;;;20.30;;
20458;SDS011;10388;52.314;7.938;2023-12-07T09:09:06;36.63;;;21.63;;
20458;SDS011;10388;52.314;7.938;2023-12-07T09:11:37;36.90;;;20.30;;
20458;SDS011;10388;52.314;7.938;2023-12-07T09:14:07;38.03;;;20.23;;
20458;SDS011;10388;52.314;7.938;2023-12-07T09:16:44;34.37;;;20.23;;
20458;SDS011;10388;52.314;7.938;2023-12-07T09:19:15;34.63;;;19.70;;
20458;SDS011;10388;52.314;7.938;2023-12-07T09:21:46;35.73;;;19.37;;
20458;SDS011;10388;52.314;7.938;2023-12-07T09:24:16;34.40;;;18.80;;
20458;SDS011;10388;52.314;7.938;2023-12-07T09:26:47;34.67;;;17.93;;
20458;SDS011;10388;52.314;7.938;2023-12-07T09:29:18;31.53;;;17.53;;
20458;SDS011;10388;52.314;7.938;2023-12-07T09:31:49;32.90;;;18.57;;
20458;SDS011;10388;52.314;7.938;2023-12-07T09:34:19;33.40;;;19.80;;
20458;SDS011;10388;52.314;7.938;2023-12-07T09:36:50;29.47;;;18.17;;
20458;SDS011;10388;52.314;7.938;2023-12-07T09:39:38;30.80;;;18.07;;
20458;SDS011;10388;52.314;7.938;2023-12-07T09:42:09;34.40;;;19.60;;
20458;SDS011;10388;52.314;7.938;2023-12-07T09:44:39;30.60;;;19.03;;
20458;SDS011;10388;52.314;7.938;2023-12-07T09:47:10;33.30;;;18.87;;
20458;SDS011;10388;52.314;7.938;2023-12-07T09:49:41;32.80;;;19.37;;
20458;SDS011;10388;52.314;7.938;2023-12-07T09:52:12;32.70;;;19.33;;
20458;SDS011;10388;52.314;7.938;2023-12-07T09:54:44;33.67;;;19.50;;
20458;SDS011;10388;52.314;7.938;2023-12-07T09:57:16;34.70;;;18.77;;
20458;SDS011;10388;52.314;7.938;2023-12-07T09:59:46;33.63;;;19.27;;
20458;SDS011;10388;52.314;7.938;2023-12-07T10:02:17;36.47;;;20.57;;
20458;SDS011;10388;52.314;7.938;2023-12-07T10:04:47;35.80;;;19.40;;
20458;SDS011;10388;52.314;7.938;2023-12-07T10:07:20;33.47;;;18.27;;
20458;SDS011;10388;52.314;7.938;2023-12-07T10:10:03;34.83;;;18.60;;
20458;SDS011;10388;52.314;7.938;2023-12-07T10:12:35;31.23;;;16.63;;
20458;SDS011;10388;52.314;7.938;2023-12-07T10:15:16;26.80;;;16.20;;
20458;SDS011;10388;52.314;7.938;2023-12-07T10:20:29;32.23;;;17.00;;
20458;SDS011;10388;52.314;7.938;2023-12-07T10:25:41;37.67;;;18.63;;
20458;SDS011;10388;52.314;7.938;2023-12-07T10:28:12;41.27;;;19.33;;
20458;SDS011;10388;52.314;7.938;2023-12-07T10:30:42;39.37;;;19.60;;
20458;SDS011;10388;52.314;7.938;2023-12-07T10:33:14;41.97;;;19.87;;
20458;SDS011;10388;52.314;7.938;2023-12-07T10:35:44;43.17;;;19.90;;
20458;SDS011;10388;52.314;7.938;2023-12-07T10:38:17;49.97;;;22.17;;
20458;SDS011;10388;52.314;7.938;2023-12-07T10:40:50;50.43;;;21.67;;
20458;SDS011;10388;52.314;7.938;2023-12-07T10:43:36;57.57;;;21.97;;
20458;SDS011;10388;52.314;7.938;2023-12-07T10:46:08;58.10;;;22.93;;
20458;SDS011;10388;52.314;7.938;2023-12-07T10:48:39;54.00;;;22.37;;
20458;SDS011;10388;52.314;7.938;2023-12-07T10:51:11;55.20;;;22.10;;
20458;SDS011;10388;52.314;7.938;2023-12-07T10:53:50;48.17;;;21.40;;
20458;SDS011;10388;52.314;7.938;2023-12-07T10:56:43;47.47;;;20.10;;
20458;SDS011;10388;52.314;7.938;2023-12-07T10:59:16;42.20;;;19.60;;
20458;SDS011;10388;52.314;7.938;2023-12-07T11:01:47;44.73;;;19.90;;
20458;SDS011;10388;52.314;7.938;2023-12-07T11:04:17;42.30;;;19.50;;
20458;SDS011;10388;52.314;7.938;2023-12-07T11:06:50;47.17;;;19.80;;
20458;SDS011;10388;52.314;7.938;2023-12-07T11:09:25;53.93;;;20.37;;
20458;SDS011;10388;52.314;7.938;2023-12-07T11:12:02;43.83;;;19.27;;
20458;SDS011;10388;52.314;7.938;2023-12-07T11:14:40;46.57;;;20.20;;
20458;SDS011;10388;52.314;7.938;2023-12-07T11:17:11;38.80;;;18.53;;
20458;SDS011;10388;52.314;7.938;2023-12-07T11:19:46;44.80;;;20.70;;
20458;SDS011;10388;52.314;7.938;2023-12-07T11:22:16;42.87;;;19.03;;
20458;SDS011;10388;52.314;7.938;2023-12-07T11:24:53;42.47;;;18.47;;
20458;SDS011;10388;52.314;7.938;2023-12-07T11:27:30;43.23;;;19.97;;
20458;SDS011;10388;52.314;7.938;2023-12-07T11:30:02;42.20;;;20.47;;
20458;SDS011;10388;52.314;7.938;2023-12-07T11:32:33;42.93;;;20.17;;
20458;SDS011;10388;52.314;7.938;2023-12-07T11:35:04;48.27;;;21.77;;
20458;SDS011;10388;52.314;7.938;2023-12-07T11:40:36;40.70;;;19.60;;
20458;SDS011;10388;52.314;7.938;2023-12-07T11:43:31;44.60;;;19.80;;
20458;SDS011;10388;52.314;7.938;2023-12-07T11:46:10;39.20;;;19.20;;
20458;SDS011;10388;52.314;7.938;2023-12-07T11:48:48;44.23;;;20.70;;
20458;SDS011;10388;52.314;7.938;2023-12-07T11:51:19;45.67;;;19.00;;
20458;SDS011;10388;52.314;7.938;2023-12-07T11:53:50;50.70;;;20.93;;
20458;SDS011;10388;52.314;7.938;2023-12-07T11:56:21;54.60;;;22.27;;
20458;SDS011;10388;52.314;7.938;2023-12-07T11:58:51;54.03;;;21.97;;
20458;SDS011;10388;52.314;7.938;2023-12-07T12:01:24;50.10;;;21.90;;
20458;SDS011;10388;52.314;7.938;2023-12-07T12:03:55;47.87;;;21.60;;
20458;SDS011;10388;52.314;7.938;2023-12-07T12:06:25;49.07;;;21.33;;
20458;SDS011;10388;52.314;7.938;2023-12-07T12:08:56;55.43;;;22.00;;
20458;SDS011;10388;52.314;7.938;2023-12-07T12:11:26;45.57;;;21.60;;
20458;SDS011;10388;52.314;7.938;2023-12-07T12:13:57;40.23;;;19.67;;
20458;SDS011;10388;52.314;7.938;2023-12-07T12:16:28;45.90;;;21.27;;
20458;SDS011;10388;52.314;7.938;2023-12-07T12:18:58;42.50;;;20.57;;
20458;SDS011;10388;52.314;7.938;2023-12-07T12:21:33;45.97;;;19.30;;
20458;SDS011;10388;52.314;7.938;2023-12-07T12:24:07;38.47;;;19.00;;
20458;SDS011;10388;52.314;7.938;2023-12-07T12:26:41;37.97;;;18.70;;
20458;SDS011;10388;52.314;7.938;2023-12-07T12:29:12;39.30;;;18.13;;
20458;SDS011;10388;52.314;7.938;2023-12-07T12:31:44;35.87;;;18.63;;
20458;SDS011;10388;52.314;7.938;2023-12-07T12:34:15;36.87;;;17.67;;
20458;SDS011;10388;52.314;7.938;2023-12-07T12:36:47;34.83;;;17.83;;
20458;SDS011;10388;52.314;7.938;2023-12-07T12:39:17;38.37;;;17.70;;
20458;SDS011;10388;52.314;7.938;2023-12-07T12:41:48;40.10;;;18.33;;
20458;SDS011;10388;52.314;7.938;2023-12-07T12:44:24;31.57;;;17.37;;
20458;SDS011;10388;52.314;7.938;2023-12-07T12:46:55;33.17;;;17.47;;
20458;SDS011;10388;52.314;7.938;2023-12-07T12:49:34;32.73;;;16.70;;
20458;SDS011;10388;52.314;7.938;2023-12-07T12:52:09;33.03;;;17.43;;
20458;SDS011;10388;52.314;7.938;2023-12-07T12:54:42;33.93;;;17.90;;
20458;SDS011;10388;52.314;7.938;2023-12-07T12:57:13;32.00;;;16.87;;
20458;SDS011;10388;52.314;7.938;2023-12-07T12:59:44;33.00;;;17.60;;
20458;SDS011;10388;52.314;7.938;2023-12-07T13:02:15;34.77;;;17.70;;
20458;SDS011;10388;52.314;7.938;2023-12-07T13:04:46;33.00;;;17.30;;
20458;SDS011;10388;52.314;7.938;2023-12-07T13:07:17;33.17;;;17.90;;
20458;SDS011;10388;52.314;7.938;2023-12-07T13:09:49;39.33;;;18.93;;
20458;SDS011;10388;52.314;7.938;2023-12-07T13:12:20;31.70;;;17.07;;
20458;SDS011;10388;52.314;7.938;2023-12-07T13:14:52;35.47;;;18.40;;
20458;SDS011;10388;52.314;7.938;2023-12-07T13:17:22;33.13;;;18.13;;
20458;SDS011;10388;52.314;7.938;2023-12-07T13:19:54;31.80;;;17.60;;
20458;SDS011;10388;52.314;7.938;2023-12-07T13:22:24;31.47;;;17.33;;
20458;SDS011;10388;52.314;7.938;2023-12-07T13:24:55;31.83;;;17.53;;
20458;SDS011;10388;52.314;7.938;2023-12-07T13:27:25;30.17;;;16.20;;
20458;SDS011;10388;52.314;7.938;2023-12-07T13:29:56;34.20;;;17.87;;
20458;SDS011;10388;52.314;7.938;2023-12-07T13:32:26;35.23;;;17.70;;
20458;SDS011;10388;52.314;7.938;2023-12-07T13:34:57;31.80;;;17.67;;
20458;SDS011;10388;52.314;7.938;2023-12-07T13:37:27;32.33;;;17.13;;
20458;SDS011;10388;52.314;7.938;2023-12-07T13:39:58;32.63;;;17.57;;
20458;SDS011;10388;52.314;7.938;2023-12-07T13:42:30;33.77;;;16.63;;
20458;SDS011;10388;52.314;7.938;2023-12-07T13:45:01;30.03;;;16.87;;
20458;SDS011;10388;52.314;7.938;2023-12-07T13:47:31;27.80;;;16.47;;
20458;SDS011;10388;52.314;7.938;2023-12-07T13:50:02;28.40;;;16.83;;
20458;SDS011;10388;52.314;7.938;2023-12-07T13:52:34;34.03;;;16.83;;
20458;SDS011;10388;52.314;7.938;2023-12-07T13:55:05;26.93;;;16.27;;
20458;SDS011;10388;52.314;7.938;2023-12-07T13:57:36;33.00;;;17.17;;
20458;SDS011;10388;52.314;7.938;2023-12-07T14:00:06;32.13;;;18.07;;
20458;SDS011;10388;52.314;7.938;2023-12-07T14:02:37;28.73;;;16.90;;
20458;SDS011;10388;52.314;7.938;2023-12-07T14:05:08;31.43;;;16.67;;
20458;SDS011;10388;52.314;7.938;2023-12-07T14:07:38;30.50;;;16.10;;
20458;SDS011;10388;52.314;7.938;2023-12-07T14:10:09;31.73;;;17.03;;
20458;SDS011;10388;52.314;7.938;2023-12-07T14:12:40;30.60;;;17.47;;
20458;SDS011;10388;52.314;7.938;2023-12-07T14:15:10;29.63;;;16.47;;
20458;SDS011;10388;52.314;7.938;2023-12-07T14:17:41;30.23;;;17.10;;
20458;SDS011;10388;52.314;7.938;2023-12-07T14:20:11;29.57;;;15.90;;
20458;SDS011;10388;52.314;7.938;2023-12-07T14:22:42;30.17;;;16.77;;
20458;SDS011;10388;52.314;7.938;2023-12-07T14:25:12;30.70;;;16.43;;
20458;SDS011;10388;52.314;7.938;2023-12-07T14:27:43;28.47;;;16.50;;
20458;SDS011;10388;52.314;7.938;2023-12-07T14:30:15;30.50;;;16.63;;
20458;SDS011;10388;52.314;7.938;2023-12-07T14:32:46;26.73;;;15.93;;
20458;SDS011;10388;52.314;7.938;2023-12-07T14:35:21;30.53;;;17.07;;
20458;SDS011;10388;52.314;7.938;2023-12-07T14:37:53;33.40;;;17.93;;
20458;SDS011;10388;52.314;7.938;2023-12-07T14:40:23;33.33;;;17.70;;
20458;SDS011;10388;52.314;7.938;2023-12-07T14:42:54;31.07;;;16.97;;
20458;SDS011;10388;52.314;7.938;2023-12-07T14:45:24;29.47;;;16.17;;
20458;SDS011;10388;52.314;7.938;2023-12-07T14:47:55;29.70;;;17.00;;
20458;SDS011;10388;52.314;7.938;2023-12-07T14:50:25;29.83;;;16.60;;
20458;SDS011;10388;52.314;7.938;2023-12-07T14:52:56;30.13;;;16.73;;
20458;SDS011;10388;52.314;7.938;2023-12-07T14:55:26;29.87;;;16.67;;
20458;SDS011;10388;52.314;7.938;2023-12-07T14:57:57;30.77;;;16.93;;
20458;SDS011;10388;52.314;7.938;2023-12-07T15:00:28;30.27;;;16.37;;
20458;SDS011;10388;52.314;7.938;2023-12-07T15:02:58;27.43;;;16.43;;